Time;durP1;ratioP1;P1;durP2;ratioP2;P2;SDS_P1;SDS_P2;PMS_P1;PMS_P2;Temp;Humidity;BMP_temperature;BMP_pressure;BME280_temperature;BME280_humidity;BME280_pressure;Samples;Min_cycle;Max_cycle;Signal;HPM_P1;HPM_P2
2022/07/18 00:00:56;;;;;;;11.25;7.80;;;27.70;99.90;;;;;;1859185;76;21150;-83
2022/07/18 00:03:27;;;;;;;14.23;8.53;;;27.60;99.90;;;;;;1862141;76;21132;-84
2022/07/18 00:05:58;;;;;;;11.93;7.87;;;27.70;99.90;;;;;;1859314;76;21119;-71
2022/07/18 00:08:29;;;;;;;16.60;7.65;;;27.70;99.90;;;;;;1861155;76;21198;-71
2022/07/18 00:11:00;;;;;;;25.62;8.70;;;27.70;99.90;;;;;;1855805;76;21065;-71
2022/07/18 00:13:31;;;;;;;13.78;7.75;;;27.70;99.90;;;;;;1857238;76;21719;-70
2022/07/18 00:16:02;;;;;;;22.42;9.08;;;27.80;99.90;;;;;;1856936;76;21191;-70
2022/07/18 00:18:34;;;;;;;12.53;7.85;;;27.80;99.90;;;;;;1859313;76;21091;-70
2022/07/18 00:21:05;;;;;;;15.20;7.85;;;27.80;99.90;;;;;;1857260;77;21134;-71
2022/07/18 00:23:36;;;;;;;14.28;8.15;;;27.90;99.90;;;;;;1860167;76;21247;-70
2022/07/18 00:26:07;;;;;;;11.78;7.92;;;28.00;99.90;;;;;;1860028;76;21129;-71
2022/07/18 00:28:39;;;;;;;10.75;7.62;;;28.00;99.90;;;;;;1857553;77;21983;-70
2022/07/18 00:31:10;;;;;;;12.78;7.85;;;28.00;99.90;;;;;;1857484;77;22205;-70
2022/07/18 00:33:41;;;;;;;11.97;7.87;;;28.10;99.90;;;;;;1857533;77;21121;-70
2022/07/18 00:36:12;;;;;;;14.30;8.80;;;28.10;99.90;;;;;;1856730;76;21178;-71
2022/07/18 00:38:45;;;;;;;14.28;7.85;;;28.10;99.90;;;;;;1854098;77;21198;-70
2022/07/18 00:41:18;;;;;;;17.10;8.28;;;28.10;99.90;;;;;;1855181;77;21810;-70
2022/07/18 00:43:49;;;;;;;13.68;7.92;;;28.20;99.90;;;;;;1854545;77;21503;-71
2022/07/18 00:46:24;;;;;;;11.75;7.95;;;28.20;99.90;;;;;;1858136;75;21561;-70
2022/07/18 00:48:55;;;;;;;12.30;7.87;;;28.20;99.90;;;;;;1795565;80;21807;-70
2022/07/18 00:51:26;;;;;;;15.20;7.70;;;28.30;99.90;;;;;;1785966;79;21224;-71
2022/07/18 00:53:57;;;;;;;10.50;7.83;;;28.40;99.90;;;;;;1792082;80;21139;-70
2022/07/18 00:56:28;;;;;;;11.43;7.25;;;28.40;99.90;;;;;;1823954;78;21161;-70
2022/07/18 00:59:00;;;;;;;11.65;8.08;;;28.50;99.90;;;;;;1806992;79;21104;-69
2022/07/18 01:04:04;;;;;;;12.37;7.72;;;28.60;99.90;;;;;;1827871;77;21691;-79
2022/07/18 01:06:35;;;;;;;11.53;7.83;;;28.60;99.90;;;;;;1786034;79;21667;-80
2022/07/18 01:09:06;;;;;;;9.90;6.97;;;28.70;99.90;;;;;;1824382;78;21197;-81
2022/07/18 01:11:37;;;;;;;8.95;6.35;;;28.70;99.90;;;;;;1823133;78;21157;-81
2022/07/18 01:14:08;;;;;;;11.63;7.00;;;28.80;99.90;;;;;;1821012;77;21559;-82
2022/07/18 01:16:40;;;;;;;9.93;7.45;;;28.90;99.90;;;;;;1786748;79;21268;-80
2022/07/18 01:19:11;;;;;;;10.58;6.92;;;29.00;99.90;;;;;;1779402;80;21681;-80
2022/07/18 01:21:42;;;;;;;10.32;6.65;;;29.00;99.90;;;;;;1803058;78;21193;-82
2022/07/18 01:24:13;;;;;;;12.78;7.08;;;29.00;99.90;;;;;;1808284;78;21647;-79
2022/07/18 01:26:44;;;;;;;11.05;6.83;;;29.20;99.90;;;;;;1793631;78;21217;-80
2022/07/18 01:29:15;;;;;;;11.50;6.33;;;29.20;99.90;;;;;;1783962;79;21083;-81
2022/07/18 01:31:46;;;;;;;8.23;6.05;;;29.20;99.90;;;;;;1786181;79;21238;-80
2022/07/18 01:34:19;;;;;;;9.55;6.75;;;29.30;99.90;;;;;;1800125;78;21144;-81
2022/07/18 01:36:53;;;;;;;10.20;6.53;;;29.40;99.90;;;;;;1821629;77;21259;-80
2022/07/18 01:39:24;;;;;;;12.23;6.80;;;29.50;99.90;;;;;;1821837;78;21286;-80
2022/07/18 01:41:57;;;;;;;10.38;6.70;;;29.60;99.90;;;;;;1817258;77;21222;-79
2022/07/18 01:44:30;;;;;;;10.10;7.00;;;29.70;99.90;;;;;;1820689;77;21169;-80
2022/07/18 01:47:02;;;;;;;11.35;6.08;;;29.80;99.90;;;;;;1802545;79;21172;-80
2022/07/18 01:49:34;;;;;;;15.95;7.08;;;29.90;99.90;;;;;;1857464;76;21207;-80
2022/07/18 01:52:05;;;;;;;13.15;7.22;;;30.00;99.90;;;;;;1857272;76;21093;-82
2022/07/18 01:54:37;;;;;;;9.83;6.60;;;30.10;99.90;;;;;;1841612;76;21120;-82
2022/07/18 01:57:09;;;;;;;12.07;7.15;;;30.20;99.90;;;;;;1857636;77;21128;-81
2022/07/18 01:59:40;;;;;;;9.45;5.87;;;30.30;99.90;;;;;;1857679;77;21207;-80
2022/07/18 02:02:11;;;;;;;11.97;6.60;;;30.40;99.80;;;;;;1857949;76;21443;-81
2022/07/18 02:07:15;;;;;;;8.30;5.92;;;30.60;99.10;;;;;;1857075;77;21183;-82
2022/07/18 02:09:46;;;;;;;10.08;5.70;;;30.70;98.50;;;;;;1857787;76;21195;-81
2022/07/18 02:12:17;;;;;;;9.40;5.62;;;30.70;98.60;;;;;;1857182;77;21154;-80
2022/07/18 02:14:48;;;;;;;9.53;4.95;;;30.80;98.60;;;;;;1857617;77;21111;-81
2022/07/18 02:17:20;;;;;;;8.10;5.55;;;30.80;97.90;;;;;;1856611;77;21108;-81
2022/07/18 02:19:51;;;;;;;8.50;5.72;;;30.90;98.20;;;;;;1857574;77;21096;-81
2022/07/18 02:22:22;;;;;;;8.68;5.90;;;31.00;98.50;;;;;;1857862;77;21261;-80
2022/07/18 02:24:54;;;;;;;8.30;5.67;;;31.10;98.10;;;;;;1857660;77;21241;-81
2022/07/18 02:27:25;;;;;;;11.73;5.95;;;31.20;98.00;;;;;;1857302;76;21232;-80
2022/07/18 02:29:56;;;;;;;11.20;5.47;;;31.20;98.40;;;;;;1857056;77;21175;-81
2022/07/18 02:32:27;;;;;;;7.60;5.33;;;31.30;97.70;;;;;;1857583;77;21122;-82
2022/07/18 02:34:58;;;;;;;8.05;5.00;;;31.40;96.90;;;;;;1838800;77;21244;-81
2022/07/18 02:37:29;;;;;;;12.05;5.53;;;31.40;96.90;;;;;;1785209;79;21240;-79
2022/07/18 02:40:00;;;;;;;11.03;5.92;;;31.60;97.60;;;;;;1855140;77;21192;-83
2022/07/18 02:42:31;;;;;;;8.40;5.83;;;31.60;97.20;;;;;;1857192;77;21147;-83
2022/07/18 02:45:03;;;;;;;10.40;5.75;;;31.60;97.20;;;;;;1857436;77;21171;-81
2022/07/18 02:47:36;;;;;;;9.00;4.80;;;31.60;96.90;;;;;;1848178;76;21188;-81
2022/07/18 02:50:07;;;;;;;8.98;5.03;;;31.60;96.00;;;;;;1841365;78;21238;-80
2022/07/18 02:52:40;;;;;;;8.25;5.00;;;31.60;96.10;;;;;;1840738;78;21211;-80
2022/07/18 02:55:13;;;;;;;7.47;4.92;;;31.70;96.20;;;;;;1835678;78;21232;-81
2022/07/18 02:57:46;;;;;;;7.78;4.55;;;31.70;96.00;;;;;;1826921;78;21557;-81
2022/07/18 03:00:19;;;;;;;10.80;5.60;;;31.80;95.80;;;;;;1828112;78;21158;-83
2022/07/18 03:02:52;;;;;;;10.75;5.10;;;31.90;96.00;;;;;;1798322;80;21172;-82
2022/07/18 03:05:21;;;;;;;9.73;5.62;;;32.00;95.60;;;;;;1838028;78;21133;-80
2022/07/18 03:07:53;;;;;;;9.80;4.55;;;32.00;96.20;;;;;;1835155;78;21111;-79
2022/07/18 03:10:24;;;;;;;6.08;4.58;;;32.00;96.60;;;;;;1829115;77;21090;-83
2022/07/18 03:12:56;;;;;;;7.78;4.80;;;32.20;95.30;;;;;;1836488;78;21144;-85
2022/07/18 03:15:29;;;;;;;8.68;5.05;;;32.20;95.10;;;;;;1758222;81;21224;-82
2022/07/18 03:18:22;;;;;;;7.83;4.47;;;32.20;95.50;;;;;;1791360;80;21164;-81
2022/07/18 03:20:52;;;;;;;6.50;4.83;;;32.40;95.00;;;;;;1789098;80;21215;-83
2022/07/18 03:23:24;;;;;;;8.53;4.15;;;32.50;94.10;;;;;;1790720;78;21109;-80
2022/07/18 03:25:55;;;;;;;5.78;4.30;;;32.50;93.90;;;;;;1787612;80;21104;-80
2022/07/18 03:28:26;;;;;;;10.15;4.22;;;32.50;93.40;;;;;;1786828;80;21244;-79
2022/07/18 03:30:58;;;;;;;7.22;4.70;;;32.40;93.90;;;;;;1790874;80;21254;-78
2022/07/18 03:33:30;;;;;;;8.05;4.50;;;32.30;93.90;;;;;;1759731;81;21178;-80
2022/07/18 03:36:01;;;;;;;9.58;4.97;;;32.20;94.10;;;;;;1759232;81;21221;-79
2022/07/18 03:38:32;;;;;;;6.40;4.10;;;32.00;94.60;;;;;;1759121;81;21137;-79
2022/07/18 03:41:05;;;;;;;8.60;4.47;;;32.00;94.30;;;;;;1803171;79;21678;-81
2022/07/18 03:43:36;;;;;;;6.90;4.25;;;31.90;94.30;;;;;;1779082;79;21128;-81
2022/07/18 03:46:08;;;;;;;12.07;4.75;;;31.80;94.70;;;;;;1754614;80;21227;-80
2022/07/18 03:48:39;;;;;;;9.30;5.00;;;31.90;94.80;;;;;;1771062;78;21121;-79
2022/07/18 03:51:10;;;;;;;7.22;4.22;;;32.00;94.80;;;;;;1744360;82;21120;-78
2022/07/18 03:53:42;;;;;;;7.95;4.65;;;32.20;94.50;;;;;;1748550;82;21174;-80
2022/07/18 03:56:13;;;;;;;8.33;4.20;;;32.30;93.80;;;;;;1754270;81;21654;-79
2022/07/18 03:58:45;;;;;;;12.90;4.17;;;32.40;93.90;;;;;;1768738;81;21107;-80
2022/07/18 04:01:17;;;;;;;8.65;4.15;;;32.50;93.30;;;;;;1768681;81;21219;-81
2022/07/18 04:03:48;;;;;;;7.15;4.47;;;32.40;93.50;;;;;;1769966;81;21685;-80
2022/07/18 04:06:20;;;;;;;5.83;3.83;;;32.40;93.50;;;;;;1743249;82;21198;-80
2022/07/18 04:08:52;;;;;;;7.53;4.00;;;32.40;94.20;;;;;;1808230;79;21209;-80
2022/07/18 04:11:23;;;;;;;6.60;4.03;;;32.50;93.70;;;;;;1773466;81;21169;-78
2022/07/18 04:13:56;;;;;;;12.60;4.72;;;32.50;93.80;;;;;;1808925;79;21154;-80
2022/07/18 04:16:27;;;;;;;7.60;4.15;;;32.50;93.70;;;;;;1765398;81;21184;-77
2022/07/18 04:18:58;;;;;;;9.73;3.55;;;32.50;92.80;;;;;;1773484;79;21640;-80
2022/07/18 04:21:31;;;;;;;9.35;4.22;;;32.40;93.60;;;;;;1773329;81;21239;-81
2022/07/18 04:24:02;;;;;;;6.50;3.55;;;32.30;93.70;;;;;;1777407;81;21128;-80
2022/07/18 04:26:33;;;;;;;6.17;3.77;;;32.50;93.20;;;;;;1770640;81;21190;-79
2022/07/18 04:29:04;;;;;;;7.92;4.00;;;32.60;93.20;;;;;;1774021;79;21145;-80
2022/07/18 04:31:35;;;;;;;6.75;3.87;;;32.80;93.30;;;;;;1778415;81;21180;-80
2022/07/18 04:34:06;;;;;;;10.58;4.00;;;32.90;93.30;;;;;;1772564;81;21118;-81
2022/07/18 04:36:38;;;;;;;5.80;3.62;;;33.00;92.90;;;;;;1807713;78;21263;-82
2022/07/18 04:39:09;;;;;;;6.25;3.85;;;33.10;92.50;;;;;;1776087;81;21249;-80
2022/07/18 04:41:40;;;;;;;7.87;3.90;;;33.10;92.80;;;;;;1772124;81;21150;-80
2022/07/18 04:44:13;;;;;;;9.85;4.00;;;33.20;92.80;;;;;;1776931;80;21187;-80
2022/07/18 04:46:43;;;;;;;6.62;4.17;;;33.20;92.20;;;;;;1772115;81;21115;-80
2022/07/18 04:49:15;;;;;;;8.95;4.20;;;33.00;92.90;;;;;;1797744;78;21144;-81
2022/07/18 04:51:45;;;;;;;6.37;4.28;;;32.90;92.90;;;;;;1824782;78;21195;-80
2022/07/18 04:54:17;;;;;;;7.90;4.03;;;32.80;93.30;;;;;;1789549;80;21551;-81
2022/07/18 04:56:49;;;;;;;8.78;3.40;;;32.60;93.50;;;;;;1825153;78;21118;-80
2022/07/18 04:59:20;;;;;;;7.37;3.30;;;32.60;93.10;;;;;;1825110;78;21154;-80
2022/07/18 05:01:51;;;;;;;6.45;3.33;;;32.50;92.20;;;;;;1825196;78;21649;-81
2022/07/18 05:04:23;;;;;;;7.15;3.58;;;32.50;92.80;;;;;;1793595;80;21143;-80
2022/07/18 05:06:55;;;;;;;5.42;3.50;;;32.50;92.50;;;;;;1811264;78;21161;-82
2022/07/18 05:09:26;;;;;;;5.47;2.75;;;32.40;92.50;;;;;;1825823;78;21087;-80
2022/07/18 05:11:57;;;;;;;6.08;3.08;;;32.50;91.90;;;;;;1808184;79;21167;-81
2022/07/18 05:14:30;;;;;;;6.47;4.40;;;32.60;91.50;;;;;;1825365;78;21089;-81
2022/07/18 05:17:03;;;;;;;4.65;2.92;;;32.80;92.10;;;;;;1824852;78;21194;-79
2022/07/18 05:19:34;;;;;;;6.95;3.95;;;33.00;92.10;;;;;;1748518;80;21158;-82
2022/07/18 05:22:05;;;;;;;7.80;4.05;;;33.20;92.60;;;;;;1818368;78;21097;-80
2022/07/18 05:24:36;;;;;;;7.72;3.77;;;33.30;92.10;;;;;;1804154;79;21185;-81
2022/07/18 05:27:07;;;;;;;9.05;3.67;;;33.20;91.30;;;;;;1803959;79;21101;-81
2022/07/18 05:29:38;;;;;;;6.67;3.27;;;33.10;91.60;;;;;;1807061;78;21202;-81
2022/07/18 05:32:11;;;;;;;9.50;3.45;;;33.10;91.70;;;;;;1824752;78;21168;-80
2022/07/18 05:34:44;;;;;;;5.65;3.15;;;33.30;91.50;;;;;;1794770;79;21609;-80
2022/07/18 05:37:15;;;;;;;5.87;2.72;;;33.40;90.70;;;;;;1807602;79;21160;-80
2022/07/18 05:39:46;;;;;;;4.37;2.75;;;33.50;89.90;;;;;;1824409;78;21140;-81
2022/07/18 05:42:17;;;;;;;5.62;2.75;;;33.60;90.10;;;;;;1788580;80;21435;-80
2022/07/18 05:44:49;;;;;;;4.25;2.67;;;33.60;90.10;;;;;;1820281;78;21107;-80
2022/07/18 05:47:20;;;;;;;3.98;2.70;;;33.70;89.00;;;;;;1824596;77;21617;-79
2022/07/18 05:49:51;;;;;;;6.28;3.35;;;33.80;89.00;;;;;;1833826;78;21238;-79
2022/07/18 05:52:23;;;;;;;4.90;2.92;;;33.70;89.50;;;;;;1842073;78;21119;-80
2022/07/18 05:54:54;;;;;;;4.20;3.00;;;33.80;90.10;;;;;;1842103;76;21209;-80
2022/07/18 05:57:25;;;;;;;5.72;3.22;;;33.60;90.30;;;;;;1841793;78;21217;-82
2022/07/18 05:59:56;;;;;;;5.15;3.02;;;33.60;90.60;;;;;;1810744;79;21182;-78
2022/07/18 06:02:27;;;;;;;5.90;3.08;;;33.60;90.20;;;;;;1843349;78;21155;-79
2022/07/18 06:04:59;;;;;;;7.08;4.00;;;33.60;90.10;;;;;;1824861;79;21206;-78
2022/07/18 06:07:31;;;;;;;4.08;3.12;;;33.60;90.40;;;;;;1838607;78;21169;-80
2022/07/18 06:10:03;;;;;;;6.17;2.80;;;33.50;90.40;;;;;;1842713;78;21094;-79
2022/07/18 06:12:35;;;;;;;4.60;2.83;;;33.40;89.70;;;;;;1850431;76;21106;-80
2022/07/18 06:15:07;;;;;;;4.70;2.70;;;33.40;88.60;;;;;;1849969;76;21153;-82
2022/07/18 06:17:41;;;;;;;5.47;3.20;;;33.30;89.30;;;;;;1841412;78;21218;-78
2022/07/18 06:20:12;;;;;;;4.85;3.10;;;33.30;89.70;;;;;;1841947;78;21131;-79
2022/07/18 06:22:46;;;;;;;5.72;3.02;;;33.30;89.10;;;;;;1841913;78;21525;-79
2022/07/18 06:25:17;;;;;;;5.80;2.50;;;33.30;89.50;;;;;;1818720;78;21225;-79
2022/07/18 06:27:48;;;;;;;5.78;2.87;;;33.20;90.50;;;;;;1819926;78;21543;-80
2022/07/18 06:30:19;;;;;;;4.30;3.02;;;33.20;90.70;;;;;;1856136;76;21669;-82
2022/07/18 06:32:50;;;;;;;5.83;2.47;;;33.30;90.40;;;;;;1822082;78;21203;-80
2022/07/18 06:35:21;;;;;;;5.58;2.60;;;33.40;90.20;;;;;;1822135;78;21157;-80
2022/07/18 06:37:52;;;;;;;5.53;2.85;;;33.50;88.80;;;;;;1856227;76;21137;-80
2022/07/18 06:40:25;;;;;;;7.45;3.40;;;33.50;88.00;;;;;;1872521;76;21138;-82
2022/07/18 06:42:56;;;;;;;4.42;2.83;;;33.50;90.20;;;;;;1841184;77;21248;-80
2022/07/18 06:45:28;;;;;;;5.53;3.47;;;33.50;91.00;;;;;;1847508;77;21145;-79
2022/07/18 06:47:59;;;;;;;6.35;3.30;;;33.60;91.30;;;;;;1847515;77;21173;-81
2022/07/18 06:50:30;;;;;;;7.92;3.08;;;33.60;90.60;;;;;;1848163;77;21099;-83
2022/07/18 06:53:01;;;;;;;7.22;3.30;;;33.60;90.70;;;;;;1849076;77;21123;-80
2022/07/18 06:55:32;;;;;;;5.47;3.15;;;33.60;91.10;;;;;;1842910;77;21131;-81
2022/07/18 06:58:03;;;;;;;8.15;3.37;;;33.60;90.80;;;;;;1843808;77;21145;-81
2022/07/18 07:00:34;;;;;;;7.60;3.77;;;33.50;90.70;;;;;;1829824;77;21269;-80
2022/07/18 07:03:05;;;;;;;6.28;3.17;;;33.50;91.20;;;;;;1832117;77;21167;-79
2022/07/18 07:05:37;;;;;;;9.43;3.40;;;33.50;91.30;;;;;;1836594;77;21240;-80
2022/07/18 07:08:08;;;;;;;6.08;3.40;;;33.50;91.20;;;;;;1835755;77;21335;-80
2022/07/18 07:10:40;;;;;;;5.75;3.10;;;33.60;90.90;;;;;;1841242;77;21158;-80
2022/07/18 07:13:11;;;;;;;4.90;3.52;;;33.60;91.10;;;;;;1826495;77;21153;-79
2022/07/18 07:15:45;;;;;;;5.10;2.80;;;33.60;90.80;;;;;;1835219;76;21146;-78
2022/07/18 07:18:19;;;;;;;3.65;2.50;;;33.60;90.20;;;;;;1813959;77;21097;-78
2022/07/18 07:20:51;;;;;;;3.50;2.72;;;33.60;88.60;;;;;;1847985;77;21204;-79
2022/07/18 07:23:21;;;;;;;4.00;2.10;;;33.70;89.60;;;;;;1823365;79;21143;-80
2022/07/18 07:25:54;;;;;;;4.60;2.60;;;33.70;90.20;;;;;;1844399;77;21626;-80
2022/07/18 07:28:25;;;;;;;4.12;2.85;;;33.80;88.70;;;;;;1831565;77;21158;-80
2022/07/18 07:31:02;;;;;;;6.03;3.50;;;33.80;90.00;;;;;;1841860;77;21780;-78
2022/07/18 07:33:36;;;;;;;5.70;3.15;;;33.70;90.30;;;;;;1787692;80;21321;-80
2022/07/18 07:36:07;;;;;;;5.95;3.05;;;33.70;90.40;;;;;;1803899;79;21144;-81
2022/07/18 07:38:39;;;;;;;4.90;2.95;;;33.70;89.40;;;;;;1843823;77;21126;-80
2022/07/18 07:41:15;;;;;;;7.10;3.62;;;33.70;90.70;;;;;;1807782;77;21184;-78
2022/07/18 07:43:46;;;;;;;4.85;3.40;;;33.70;91.10;;;;;;1808164;79;21248;-79
2022/07/18 07:46:17;;;;;;;7.92;4.20;;;33.80;90.90;;;;;;1809963;78;21161;-79
2022/07/18 07:48:48;;;;;;;6.83;3.80;;;33.70;91.10;;;;;;1825032;78;21164;-81
2022/07/18 07:51:23;;;;;;;4.70;3.10;;;33.80;90.90;;;;;;1816765;77;21157;-81
2022/07/18 07:53:55;;;;;;;5.20;2.72;;;33.90;91.00;;;;;;1815604;77;21227;-80
2022/07/18 07:56:26;;;;;;;5.25;3.15;;;33.90;90.60;;;;;;1828589;78;21787;-81
2022/07/18 07:58:57;;;;;;;5.58;3.05;;;33.90;90.30;;;;;;1830399;78;21229;-81
2022/07/18 08:01:29;;;;;;;5.83;3.20;;;33.70;90.80;;;;;;1807627;79;21107;-80
2022/07/18 08:04:00;;;;;;;5.28;3.30;;;33.60;90.60;;;;;;1806600;79;21131;-80
2022/07/18 08:06:31;;;;;;;6.90;3.30;;;33.50;90.90;;;;;;1826989;78;21096;-78
2022/07/18 08:09:02;;;;;;;7.85;3.42;;;33.50;91.20;;;;;;1840125;78;21138;-79
2022/07/18 08:11:34;;;;;;;10.45;3.20;;;33.40;91.10;;;;;;1828755;78;21158;-79
2022/07/18 08:14:05;;;;;;;4.55;3.02;;;33.40;91.00;;;;;;1817937;78;21143;-79
2022/07/18 08:16:36;;;;;;;5.97;3.17;;;33.50;91.20;;;;;;1838416;78;21605;-81
2022/07/18 08:19:07;;;;;;;4.25;2.72;;;33.60;91.00;;;;;;1839930;76;21712;-80
2022/07/18 08:21:39;;;;;;;4.42;2.80;;;33.70;90.90;;;;;;1871276;76;21522;-77
2022/07/18 08:24:18;;;;;;;6.20;2.70;;;33.60;90.90;;;;;;1892231;76;21735;-81
2022/07/18 08:26:42;;;;;;;10.10;2.90;;;33.60;90.40;;;;;;1881200;76;21216;-80
2022/07/18 08:29:17;;;;;;;6.10;2.72;;;33.60;90.80;;;;;;1892491;76;21269;-79
2022/07/18 08:31:49;;;;;;;6.20;2.72;;;33.60;90.60;;;;;;1879587;76;21119;-79
2022/07/18 08:34:20;;;;;;;5.08;2.95;;;33.50;90.90;;;;;;1878161;76;21260;-80
2022/07/18 08:36:51;;;;;;;6.25;2.92;;;33.40;91.10;;;;;;1892581;76;21150;-80
2022/07/18 08:39:22;;;;;;;3.47;2.60;;;33.40;90.80;;;;;;1891868;76;21554;-78
2022/07/18 08:41:59;;;;;;;3.60;2.60;;;33.30;91.00;;;;;;1882079;76;21178;-79
2022/07/18 08:44:34;;;;;;;4.47;2.50;;;33.10;91.30;;;;;;1891228;76;21320;-80
2022/07/18 08:47:03;;;;;;;5.97;2.83;;;33.20;91.10;;;;;;1888131;76;21138;-78
2022/07/18 08:49:36;;;;;;;6.97;2.90;;;33.10;91.00;;;;;;1886871;76;21184;-80
2022/07/18 08:52:07;;;;;;;5.37;2.75;;;33.10;91.20;;;;;;1857906;76;21157;-80
2022/07/18 08:54:40;;;;;;;5.70;2.72;;;33.10;91.00;;;;;;1822411;78;21090;-79
2022/07/18 08:57:11;;;;;;;4.87;2.40;;;33.10;91.20;;;;;;1831651;78;21162;-78
2022/07/18 08:59:43;;;;;;;5.78;2.72;;;33.10;91.30;;;;;;1832557;78;21135;-80
2022/07/18 09:02:39;;;;;;;7.50;2.95;;;33.00;91.30;;;;;;1830549;78;21542;-79
2022/07/18 09:05:13;;;;;;;7.40;3.00;;;33.00;91.30;;;;;;1795037;78;21594;-80
2022/07/18 09:07:51;;;;;;;6.03;2.87;;;33.10;90.80;;;;;;1807896;78;21208;-80
2022/07/18 09:10:19;;;;;;;5.65;2.75;;;33.10;90.80;;;;;;1815803;78;21151;-80
2022/07/18 09:12:52;;;;;;;6.47;2.52;;;33.10;90.60;;;;;;1812200;78;21178;-80
2022/07/18 09:15:25;;;;;;;3.72;2.80;;;33.00;90.50;;;;;;1857860;77;21257;-79
2022/07/18 09:17:57;;;;;;;4.70;2.65;;;33.00;90.60;;;;;;1812589;78;21197;-80
2022/07/18 09:20:30;;;;;;;7.47;3.05;;;33.00;90.40;;;;;;1824468;77;21197;-80
2022/07/18 09:23:06;;;;;;;5.55;3.00;;;33.00;90.50;;;;;;1850747;77;21051;-82
2022/07/18 09:25:37;;;;;;;4.33;3.05;;;33.00;90.60;;;;;;1852220;77;21079;-83
2022/07/18 09:28:10;;;;;;;4.28;2.62;;;33.00;90.90;;;;;;1772819;80;21249;-78
2022/07/18 09:30:41;;;;;;;7.95;3.92;;;33.00;90.80;;;;;;1799317;78;21301;-82
2022/07/18 09:33:12;;;;;;;8.18;3.60;;;33.00;91.30;;;;;;1788736;80;21150;-80
2022/07/18 09:35:45;;;;;;;5.78;3.22;;;32.90;91.30;;;;;;1796106;80;21156;-81
2022/07/18 09:38:20;;;;;;;5.55;3.77;;;32.90;91.70;;;;;;1795971;78;21166;-83
2022/07/18 09:40:53;;;;;;;9.88;3.60;;;32.80;92.00;;;;;;1795455;78;21187;-80
2022/07/18 09:43:29;;;;;;;5.50;3.52;;;32.70;92.10;;;;;;1796820;78;21131;-82
2022/07/18 09:45:58;;;;;;;4.58;3.10;;;32.70;92.40;;;;;;1834847;75;21103;-79
2022/07/18 09:48:31;;;;;;;7.33;3.50;;;32.70;92.50;;;;;;1801895;80;21192;-80
2022/07/18 09:51:05;;;;;;;5.97;2.70;;;32.60;92.50;;;;;;1838291;77;21126;-79
2022/07/18 09:53:38;;;;;;;5.85;3.47;;;32.50;92.80;;;;;;1857675;75;21197;-78
2022/07/18 09:56:14;;;;;;;7.28;3.35;;;32.50;93.00;;;;;;1841110;77;21142;-80
2022/07/18 09:58:46;;;;;;;5.70;2.77;;;32.60;92.90;;;;;;1847311;76;21138;-80
2022/07/18 10:01:18;;;;;;;6.03;2.98;;;32.60;92.90;;;;;;1849888;76;21197;-81
2022/07/18 10:03:50;;;;;;;7.95;3.42;;;32.60;92.80;;;;;;1871759;76;21095;-79
2022/07/18 10:06:22;;;;;;;8.53;2.90;;;32.60;92.80;;;;;;1861896;76;21122;-78
2022/07/18 10:08:55;;;;;;;5.70;2.80;;;32.70;92.10;;;;;;1862269;76;21198;-80
2022/07/18 10:11:26;;;;;;;7.58;3.37;;;32.80;91.70;;;;;;1863128;76;21298;-79
2022/07/18 10:13:57;;;;;;;6.25;3.20;;;32.80;91.10;;;;;;1860437;76;21673;-80
2022/07/18 10:16:29;;;;;;;6.00;2.77;;;32.80;90.80;;;;;;1857326;76;21122;-78
2022/07/18 10:19:00;;;;;;;5.87;3.25;;;32.80;91.00;;;;;;1869301;76;21216;-82
2022/07/18 10:21:32;;;;;;;5.33;2.75;;;32.80;91.40;;;;;;1855816;76;21075;-80
2022/07/18 10:24:03;;;;;;;6.17;3.00;;;32.80;90.90;;;;;;1860529;76;21759;-80
2022/07/18 10:26:34;;;;;;;3.98;2.45;;;32.80;90.70;;;;;;1858818;76;21158;-81
2022/07/18 10:29:08;;;;;;;5.50;2.83;;;32.80;90.60;;;;;;1859724;76;21148;-80
2022/07/18 10:31:42;;;;;;;4.85;3.00;;;32.80;90.80;;;;;;1864000;76;21098;-81
2022/07/18 10:34:14;;;;;;;5.95;3.37;;;32.80;91.30;;;;;;1866820;76;21180;-80
2022/07/18 10:36:47;;;;;;;9.15;3.05;;;32.80;91.30;;;;;;1856959;76;21119;-81
2022/07/18 10:39:20;;;;;;;6.83;2.80;;;32.80;91.40;;;;;;1860111;76;21197;-83
2022/07/18 10:42:03;;;;;;;7.35;2.98;;;32.80;90.90;;;;;;1796558;79;21508;-81
2022/07/18 10:44:29;;;;;;;4.37;2.70;;;32.80;91.20;;;;;;1788391;79;21717;-82
2022/07/18 10:47:02;;;;;;;8.23;3.17;;;32.70;91.10;;;;;;1799917;79;21539;-81
2022/07/18 10:49:36;;;;;;;6.72;3.35;;;32.70;91.40;;;;;;1802086;79;21075;-80
2022/07/18 10:52:07;;;;;;;5.30;2.92;;;32.70;91.20;;;;;;1783113;79;21676;-80
2022/07/18 10:54:38;;;;;;;7.40;3.42;;;32.70;91.40;;;;;;1819194;77;21256;-80
2022/07/18 10:57:10;;;;;;;10.98;3.10;;;32.60;91.60;;;;;;1781674;79;21109;-77
2022/07/18 10:59:44;;;;;;;8.25;2.80;;;32.60;91.50;;;;;;1794912;78;21154;-81
2022/07/18 11:02:17;;;;;;;7.30;2.90;;;32.60;91.70;;;;;;1828544;77;21209;-80
2022/07/18 11:04:48;;;;;;;7.22;3.30;;;32.60;91.70;;;;;;1822976;77;21394;-81
2022/07/18 11:07:19;;;;;;;5.90;2.90;;;32.60;91.70;;;;;;1821170;78;21144;-80
2022/07/18 11:09:50;;;;;;;6.40;3.33;;;32.60;91.80;;;;;;1863020;76;21230;-80
2022/07/18 11:12:25;;;;;;;5.87;3.65;;;32.50;91.60;;;;;;1868925;76;21149;-81
2022/07/18 11:14:58;;;;;;;7.15;3.25;;;32.50;91.70;;;;;;1856331;77;21618;-80
2022/07/18 11:17:33;;;;;;;5.75;3.35;;;32.50;92.20;;;;;;1851852;77;21139;-80
2022/07/18 11:20:07;;;;;;;6.47;3.30;;;32.50;92.10;;;;;;1848417;76;21243;-80
2022/07/18 11:22:40;;;;;;;9.05;3.87;;;32.50;91.90;;;;;;1857687;77;21122;-80
2022/07/18 11:25:12;;;;;;;7.28;3.52;;;32.50;91.90;;;;;;1835071;77;21220;-81
2022/07/18 11:27:46;;;;;;;6.40;2.90;;;32.40;91.90;;;;;;1853624;75;21780;-80
2022/07/18 11:30:19;;;;;;;7.62;3.58;;;32.40;92.00;;;;;;1855919;76;21189;-81
2022/07/18 11:32:56;;;;;;;5.80;3.00;;;32.40;92.00;;;;;;1871266;76;21637;-82
2022/07/18 11:35:28;;;;;;;9.25;3.72;;;32.40;92.10;;;;;;1862969;76;21145;-80
2022/07/18 11:38:00;;;;;;;7.37;3.25;;;32.40;92.10;;;;;;1844809;76;21131;-78
2022/07/18 11:40:32;;;;;;;6.67;3.67;;;32.30;92.10;;;;;;1867765;76;21160;-79
2022/07/18 11:43:05;;;;;;;7.30;3.70;;;32.30;92.20;;;;;;1861029;76;21146;-79
2022/07/18 11:45:35;;;;;;;9.90;3.85;;;32.30;92.30;;;;;;1862586;76;21538;-81
2022/07/18 11:48:07;;;;;;;8.48;3.47;;;32.30;92.40;;;;;;1860826;76;21135;-80
2022/07/18 11:50:40;;;;;;;8.75;3.92;;;32.30;92.60;;;;;;1864442;76;21099;-80
2022/07/18 11:53:11;;;;;;;9.65;4.37;;;32.20;92.50;;;;;;1868349;74;21705;-80
2022/07/18 11:55:42;;;;;;;7.37;4.30;;;32.20;92.50;;;;;;1862300;76;21190;-81
2022/07/18 11:58:18;;;;;;;11.10;4.15;;;32.20;92.70;;;;;;1868257;76;21141;-79
2022/07/18 12:00:55;;;;;;;8.60;3.90;;;32.10;92.60;;;;;;1859828;76;21123;-81
2022/07/18 12:03:35;;;;;;;10.05;5.75;;;32.10;92.70;;;;;;1865957;76;21146;-78
2022/07/18 12:06:08;;;;;;;9.70;4.85;;;32.10;92.80;;;;;;1829725;77;21147;-80
2022/07/18 12:08:46;;;;;;;9.65;3.87;;;32.10;92.80;;;;;;1865387;76;21113;-81
2022/07/18 12:11:21;;;;;;;10.00;4.30;;;32.00;92.80;;;;;;1806702;76;21939;-79
2022/07/18 12:13:56;;;;;;;11.93;4.33;;;32.00;92.90;;;;;;1856713;76;21701;-80
2022/07/18 12:16:33;;;;;;;10.80;4.53;;;32.00;93.00;;;;;;1862622;76;21186;-80
2022/07/18 12:19:13;;;;;;;8.60;3.83;;;32.00;93.00;;;;;;1856301;76;21130;-80
2022/07/18 12:21:41;;;;;;;11.60;4.83;;;32.00;93.10;;;;;;1855102;76;21123;-80
2022/07/18 12:24:14;;;;;;;10.85;3.98;;;32.00;93.20;;;;;;1860236;76;21170;-80
2022/07/18 12:26:47;;;;;;;7.10;4.08;;;31.90;93.10;;;;;;1858167;76;21079;-80
2022/07/18 12:29:18;;;;;;;9.63;4.90;;;31.90;93.10;;;;;;1867762;76;21098;-78
2022/07/18 12:31:51;;;;;;;9.45;4.62;;;31.90;93.20;;;;;;1873589;76;21150;-79
2022/07/18 12:34:22;;;;;;;15.35;4.87;;;31.90;93.30;;;;;;1882446;76;21154;-79
2022/07/18 12:36:56;;;;;;;9.60;4.30;;;31.90;93.30;;;;;;1875687;76;21096;-79
2022/07/18 12:39:31;;;;;;;11.75;4.58;;;31.90;93.40;;;;;;1861255;76;21138;-80
2022/07/18 12:42:02;;;;;;;8.33;4.42;;;31.80;93.20;;;;;;1821671;78;21143;-79
2022/07/18 12:44:39;;;;;;;9.43;4.53;;;31.80;93.20;;;;;;1857541;76;21134;-85
2022/07/18 12:47:17;;;;;;;10.88;5.22;;;31.80;93.30;;;;;;1856163;76;21164;-83
2022/07/18 12:49:48;;;;;;;10.70;4.87;;;31.70;93.30;;;;;;1820585;77;21160;-85
2022/07/18 12:52:19;;;;;;;9.53;4.22;;;31.70;93.20;;;;;;1859544;76;21171;-83
2022/07/18 12:54:51;;;;;;;12.40;4.70;;;31.70;93.20;;;;;;1858233;76;21214;-83
2022/07/18 12:57:23;;;;;;;8.78;4.17;;;31.70;93.20;;;;;;1864137;76;21110;-83
2022/07/18 12:59:54;;;;;;;9.73;4.75;;;31.70;93.20;;;;;;1857871;77;21539;-83
2022/07/18 13:02:25;;;;;;;9.00;4.50;;;31.70;93.30;;;;;;1860866;76;21612;-85
2022/07/18 13:04:57;;;;;;;9.00;4.30;;;31.70;93.10;;;;;;1881194;76;21138;-83
2022/07/18 13:07:27;;;;;;;11.48;4.35;;;31.60;93.20;;;;;;1867181;76;21404;-83
2022/07/18 13:10:22;;;;;;;6.47;3.95;;;31.60;93.10;;;;;;1859447;76;21150;-83
2022/07/18 13:12:37;;;;;;;10.93;4.65;;;31.50;93.10;;;;;;1822965;77;21617;-84
2022/07/18 13:15:09;;;;;;;10.98;4.92;;;31.50;93.20;;;;;;1860208;76;21139;-84